createdAt,value
2018-02-24T00:04:44.352Z,12.90
2018-02-24T00:14:53.305Z,12.37
2018-02-24T00:25:05.179Z,14.30
2018-02-24T00:35:14.425Z,13.77
2018-02-24T00:45:24.046Z,12.33
2018-02-24T00:55:33.240Z,12.50
2018-02-24T01:05:41.939Z,14.20
2018-02-24T01:15:51.181Z,12.83
2018-02-24T01:26:00.878Z,11.73
2018-02-24T01:36:15.647Z,11.97
2018-02-24T01:56:32.038Z,12.20
2018-02-24T02:06:41.370Z,12.50
2018-02-24T02:16:49.288Z,13.53
2018-02-24T02:26:59.406Z,16.07
2018-02-24T02:37:11.803Z,12.50
2018-02-24T02:47:20.832Z,13.53
2018-02-24T02:57:30.831Z,14.60
2018-02-24T03:07:40.113Z,14.23
2018-02-24T03:17:49.011Z,15.83
2018-02-24T03:27:57.551Z,13.50
2018-02-24T03:38:08.512Z,18.07
2018-02-24T03:48:17.799Z,17.93
2018-02-24T03:58:28.280Z,16.60
2018-02-24T04:08:36.717Z,18.67
2018-02-24T04:18:47.546Z,19.13
2018-02-24T04:28:55.664Z,16.70
2018-02-24T04:39:06.118Z,15.47
2018-02-24T04:49:16.887Z,15.53
2018-02-24T04:59:28.186Z,14.67
2018-02-24T05:09:37.273Z,13.63
2018-02-24T05:19:46.710Z,13.93
2018-02-24T05:29:58.487Z,13.33
2018-02-24T05:40:09.677Z,15.17
2018-02-24T05:50:18.949Z,13.30
2018-02-24T06:00:29.568Z,22.93
2018-02-24T06:10:49.497Z,14.53
2018-02-24T06:21:00.046Z,14.47
2018-02-24T06:31:12.290Z,14.00
2018-02-24T06:41:22.670Z,14.27
2018-02-24T06:51:33.663Z,12.47
2018-02-24T07:01:42.863Z,13.03
2018-02-24T07:11:51.032Z,12.03
2018-02-24T07:22:05.761Z,11.97
2018-02-24T07:32:15.900Z,12.20
2018-02-24T07:42:25.197Z,11.60
2018-02-24T07:52:35.794Z,11.40
2018-02-24T08:02:44.284Z,12.10
2018-02-24T08:12:53.290Z,12.13
2018-02-24T08:23:04.725Z,12.20
2018-02-24T08:33:13.742Z,11.30
2018-02-24T08:43:22.528Z,11.90
2018-02-24T08:53:32.282Z,12.50
2018-02-24T09:03:45.034Z,13.07
2018-02-24T09:13:54.400Z,12.80
2018-02-24T09:24:06.052Z,15.30
2018-02-24T09:34:17.129Z,18.70
2018-02-24T09:44:27.370Z,17.50
2018-02-24T09:54:36.418Z,17.53
2018-02-24T10:04:44.607Z,18.03
2018-02-24T10:14:53.815Z,15.87
2018-02-24T10:25:05.119Z,15.00
2018-02-24T10:35:14.738Z,15.03
2018-02-24T10:45:23.660Z,14.27
2018-02-24T10:55:33.185Z,13.33
2018-02-24T11:05:42.700Z,12.30
2018-02-24T11:15:51.520Z,13.37
2018-02-24T11:26:02.229Z,14.07
2018-02-24T11:36:12.863Z,12.63
2018-02-24T11:46:22.031Z,11.80
2018-02-24T11:56:33.448Z,12.03
2018-02-24T12:06:43.985Z,12.20
2018-02-24T12:16:59.552Z,11.00
2018-02-24T12:27:09.356Z,11.07
2018-02-24T12:37:18.975Z,10.07
2018-02-24T12:47:28.936Z,10.83
2018-02-24T12:57:37.429Z,11.37
2018-02-24T13:07:49.432Z,10.73
2018-02-24T13:18:01.478Z,10.17
2018-02-24T13:28:11.064Z,10.00
2018-02-24T13:38:20.378Z,9.90
2018-02-24T13:48:33.938Z,10.30
2018-02-24T13:58:45.235Z,10.20
2018-02-24T14:08:55.376Z,10.20
2018-02-24T14:19:08.283Z,9.47
2018-02-24T14:29:18.845Z,9.73
2018-02-24T14:39:28.126Z,9.00
2018-02-24T14:49:38.006Z,9.13
2018-02-24T14:59:47.021Z,9.67
2018-02-24T15:09:57.753Z,9.77
2018-02-24T15:20:07.266Z,9.83
2018-02-24T15:30:17.717Z,12.10
2018-02-24T15:40:27.591Z,8.73
2018-02-24T15:50:36.232Z,8.90
2018-02-24T16:00:45.806Z,9.43
2018-02-24T16:10:59.964Z,8.30
2018-02-24T16:21:08.673Z,8.47
2018-02-24T16:31:24.317Z,8.77
2018-02-24T16:41:36.450Z,7.53
2018-02-24T16:51:44.480Z,7.77
2018-02-24T17:01:59.258Z,7.57
2018-02-24T17:12:10.271Z,7.60
2018-02-24T17:22:18.360Z,7.13
2018-02-24T17:32:27.809Z,7.30
2018-02-24T17:42:37.052Z,7.23
2018-02-24T17:52:49.248Z,7.17
2018-02-24T18:03:01.205Z,7.87
2018-02-24T18:13:10.626Z,6.80
2018-02-24T18:23:21.542Z,6.87
2018-02-24T18:33:30.063Z,7.20
2018-02-24T18:43:38.801Z,7.30
2018-02-24T18:53:51.209Z,6.97
2018-02-24T19:03:59.629Z,6.73
2018-02-24T19:14:13.216Z,6.80
2018-02-24T19:24:22.117Z,7.20
2018-02-24T19:34:30.790Z,6.77
2018-02-24T19:44:41.216Z,6.20
2018-02-24T19:54:51.837Z,6.37
2018-02-24T20:05:01.454Z,7.07
2018-02-24T20:15:12.151Z,7.03
2018-02-24T20:25:20.482Z,6.30
2018-02-24T20:35:32.015Z,6.90
2018-02-24T20:45:43.678Z,6.60
2018-02-24T21:27:05.298Z,7.00
2018-02-24T21:37:13.240Z,7.07
2018-02-24T21:47:22.747Z,6.63
2018-02-24T21:57:32.799Z,6.90
2018-02-24T22:07:41.516Z,6.70
2018-02-24T22:17:53.226Z,6.77
2018-02-24T22:28:05.753Z,6.40
2018-02-24T22:38:14.223Z,6.37
2018-02-24T22:48:30.256Z,6.53
2018-02-24T22:58:46.945Z,8.87
2018-02-24T23:08:57.049Z,6.30
2018-02-24T23:19:06.214Z,6.37
2018-02-24T23:29:15.718Z,6.60
2018-02-24T23:39:24.302Z,7.23
2018-02-24T23:49:33.070Z,6.10
2018-02-24T23:59:42.724Z,6.53
